<?xml version="1.0" encoding="UTF-8" ?>
<gpx version="1.1" xmlns:xsi="http://www.w3.org/2001/XMLSchema-instance" 
    xmlns="http://www.topografix.com/GPX/1/1" 
    xsi:schemaLocation="http://www.topografix.com/GPX/1/1 http://www.topografix.com/GPX/1/1/gpx.xsd" 
    creator="Openrunner - https://www.openrunner.com" >	<trk>
						<name>Longessaigne - 1001 points de vue-21794404</name>
						<trkseg>
					<trkpt lat="45.791760" lon="4.424350">
						<ele>697</ele>
						<time>2025-07-01T14:53:44Z</time>
					</trkpt>
					<trkpt lat="45.791890" lon="4.424510">
						<ele>696</ele>
						<time>2025-07-01T14:54:07Z</time>
					</trkpt>
					<trkpt lat="45.792000" lon="4.424710">
						<ele>695</ele>
						<time>2025-07-01T14:54:31Z</time>
					</trkpt>
					<trkpt lat="45.791950" lon="4.424740">
						<ele>695</ele>
						<time>2025-07-01T14:54:38Z</time>
					</trkpt>
					<trkpt lat="45.791710" lon="4.424890">
						<ele>693</ele>
						<time>2025-07-01T14:55:13Z</time>
					</trkpt>
					<trkpt lat="45.791390" lon="4.425130">
						<ele>688</ele>
						<time>2025-07-01T14:56:01Z</time>
					</trkpt>
					<trkpt lat="45.791330" lon="4.425140">
						<ele>687</ele>
						<time>2025-07-01T14:56:09Z</time>
					</trkpt>
					<trkpt lat="45.791270" lon="4.425130">
						<ele>687</ele>
						<time>2025-07-01T14:56:17Z</time>
					</trkpt>
					<trkpt lat="45.791230" lon="4.425080">
						<ele>687</ele>
						<time>2025-07-01T14:56:24Z</time>
					</trkpt>
					<trkpt lat="45.791180" lon="4.425030">
						<ele>688</ele>
						<time>2025-07-01T14:56:32Z</time>
					</trkpt>
					<trkpt lat="45.791160" lon="4.425140">
						<ele>686</ele>
						<time>2025-07-01T14:56:43Z</time>
					</trkpt>
					<trkpt lat="45.791100" lon="4.425290">
						<ele>684</ele>
						<time>2025-07-01T14:56:59Z</time>
					</trkpt>
					<trkpt lat="45.791090" lon="4.425320">
						<ele>684</ele>
						<time>2025-07-01T14:57:02Z</time>
					</trkpt>
					<trkpt lat="45.791100" lon="4.425530">
						<ele>681</ele>
						<time>2025-07-01T14:57:22Z</time>
					</trkpt>
					<trkpt lat="45.791070" lon="4.425640">
						<ele>680</ele>
						<time>2025-07-01T14:57:33Z</time>
					</trkpt>
					<trkpt lat="45.790930" lon="4.425810">
						<ele>678</ele>
						<time>2025-07-01T14:57:57Z</time>
					</trkpt>
					<trkpt lat="45.790780" lon="4.425960">
						<ele>674</ele>
						<time>2025-07-01T14:58:21Z</time>
					</trkpt>
					<trkpt lat="45.790460" lon="4.426250">
						<ele>666</ele>
						<time>2025-07-01T14:59:12Z</time>
					</trkpt>
					<trkpt lat="45.790380" lon="4.426360">
						<ele>664</ele>
						<time>2025-07-01T14:59:27Z</time>
					</trkpt>
					<trkpt lat="45.790260" lon="4.426440">
						<ele>663</ele>
						<time>2025-07-01T14:59:44Z</time>
					</trkpt>
					<trkpt lat="45.790020" lon="4.426760">
						<ele>659</ele>
						<time>2025-07-01T15:00:28Z</time>
					</trkpt>
					<trkpt lat="45.789900" lon="4.426850">
						<ele>659</ele>
						<time>2025-07-01T15:00:46Z</time>
					</trkpt>
					<trkpt lat="45.789790" lon="4.426870">
						<ele>659</ele>
						<time>2025-07-01T15:01:01Z</time>
					</trkpt>
					<trkpt lat="45.789710" lon="4.426850">
						<ele>659</ele>
						<time>2025-07-01T15:01:12Z</time>
					</trkpt>
					<trkpt lat="45.789350" lon="4.426740">
						<ele>658</ele>
						<time>2025-07-01T15:02:01Z</time>
					</trkpt>
					<trkpt lat="45.789160" lon="4.426750">
						<ele>658</ele>
						<time>2025-07-01T15:02:26Z</time>
					</trkpt>
					<trkpt lat="45.788990" lon="4.426750">
						<ele>658</ele>
						<time>2025-07-01T15:02:49Z</time>
					</trkpt>
					<trkpt lat="45.788180" lon="4.426820">
						<ele>659</ele>
						<time>2025-07-01T15:04:37Z</time>
					</trkpt>
					<trkpt lat="45.787790" lon="4.426920">
						<ele>659</ele>
						<time>2025-07-01T15:05:30Z</time>
					</trkpt>
					<trkpt lat="45.787360" lon="4.427100">
						<ele>659</ele>
						<time>2025-07-01T15:06:30Z</time>
					</trkpt>
					<trkpt lat="45.786950" lon="4.427240">
						<ele>656</ele>
						<time>2025-07-01T15:07:26Z</time>
					</trkpt>
					<trkpt lat="45.786750" lon="4.427370">
						<ele>656</ele>
						<time>2025-07-01T15:07:56Z</time>
					</trkpt>
					<trkpt lat="45.786570" lon="4.427560">
						<ele>656</ele>
						<time>2025-07-01T15:08:25Z</time>
					</trkpt>
					<trkpt lat="45.786160" lon="4.428100">
						<ele>657</ele>
						<time>2025-07-01T15:09:40Z</time>
					</trkpt>
					<trkpt lat="45.786030" lon="4.428330">
						<ele>657</ele>
						<time>2025-07-01T15:10:07Z</time>
					</trkpt>
					<trkpt lat="45.785800" lon="4.428880">
						<ele>656</ele>
						<time>2025-07-01T15:11:07Z</time>
					</trkpt>
					<trkpt lat="45.785740" lon="4.428980">
						<ele>658</ele>
						<time>2025-07-01T15:11:19Z</time>
					</trkpt>
					<trkpt lat="45.785670" lon="4.429080">
						<ele>661</ele>
						<time>2025-07-01T15:11:32Z</time>
					</trkpt>
					<trkpt lat="45.785500" lon="4.429660">
						<ele>664</ele>
						<time>2025-07-01T15:12:31Z</time>
					</trkpt>
					<trkpt lat="45.785430" lon="4.429710">
						<ele>666</ele>
						<time>2025-07-01T15:12:41Z</time>
					</trkpt>
					<trkpt lat="45.785210" lon="4.430060">
						<ele>669</ele>
						<time>2025-07-01T15:13:25Z</time>
					</trkpt>
					<trkpt lat="45.784990" lon="4.430220">
						<ele>673</ele>
						<time>2025-07-01T15:13:58Z</time>
					</trkpt>
					<trkpt lat="45.784930" lon="4.430270">
						<ele>674</ele>
						<time>2025-07-01T15:14:07Z</time>
					</trkpt>
					<trkpt lat="45.784740" lon="4.430350">
						<ele>677</ele>
						<time>2025-07-01T15:14:34Z</time>
					</trkpt>
					<trkpt lat="45.784570" lon="4.430360">
						<ele>680</ele>
						<time>2025-07-01T15:14:56Z</time>
					</trkpt>
					<trkpt lat="45.784490" lon="4.430330">
						<ele>682</ele>
						<time>2025-07-01T15:15:08Z</time>
					</trkpt>
					<trkpt lat="45.784160" lon="4.430090">
						<ele>693</ele>
						<time>2025-07-01T15:15:57Z</time>
					</trkpt>
					<trkpt lat="45.784080" lon="4.430050">
						<ele>694</ele>
						<time>2025-07-01T15:16:08Z</time>
					</trkpt>
					<trkpt lat="45.783470" lon="4.429900">
						<ele>697</ele>
						<time>2025-07-01T15:17:31Z</time>
					</trkpt>
					<trkpt lat="45.783150" lon="4.429740">
						<ele>700</ele>
						<time>2025-07-01T15:18:16Z</time>
					</trkpt>
					<trkpt lat="45.783040" lon="4.429700">
						<ele>701</ele>
						<time>2025-07-01T15:18:31Z</time>
					</trkpt>
					<trkpt lat="45.782480" lon="4.429740">
						<ele>704</ele>
						<time>2025-07-01T15:19:46Z</time>
					</trkpt>
					<trkpt lat="45.782090" lon="4.429750">
						<ele>703</ele>
						<time>2025-07-01T15:20:38Z</time>
					</trkpt>
					<trkpt lat="45.782000" lon="4.429730">
						<ele>702</ele>
						<time>2025-07-01T15:20:50Z</time>
					</trkpt>
					<trkpt lat="45.781930" lon="4.429740">
						<ele>702</ele>
						<time>2025-07-01T15:21:00Z</time>
					</trkpt>
					<trkpt lat="45.781810" lon="4.429780">
						<ele>702</ele>
						<time>2025-07-01T15:21:16Z</time>
					</trkpt>
					<trkpt lat="45.781570" lon="4.429870">
						<ele>702</ele>
						<time>2025-07-01T15:21:49Z</time>
					</trkpt>
					<trkpt lat="45.781400" lon="4.429960">
						<ele>702</ele>
						<time>2025-07-01T15:22:13Z</time>
					</trkpt>
					<trkpt lat="45.780900" lon="4.430250">
						<ele>704</ele>
						<time>2025-07-01T15:23:25Z</time>
					</trkpt>
					<trkpt lat="45.780790" lon="4.430310">
						<ele>704</ele>
						<time>2025-07-01T15:23:41Z</time>
					</trkpt>
					<trkpt lat="45.780480" lon="4.430490">
						<ele>703</ele>
						<time>2025-07-01T15:24:26Z</time>
					</trkpt>
					<trkpt lat="45.779130" lon="4.431280">
						<ele>699</ele>
						<time>2025-07-01T15:27:40Z</time>
					</trkpt>
					<trkpt lat="45.779100" lon="4.431240">
						<ele>699</ele>
						<time>2025-07-01T15:27:46Z</time>
					</trkpt>
					<trkpt lat="45.778850" lon="4.431640">
						<ele>697</ele>
						<time>2025-07-01T15:28:36Z</time>
					</trkpt>
					<trkpt lat="45.778750" lon="4.431760">
						<ele>696</ele>
						<time>2025-07-01T15:28:53Z</time>
					</trkpt>
					<trkpt lat="45.778640" lon="4.431870">
						<ele>695</ele>
						<time>2025-07-01T15:29:11Z</time>
					</trkpt>
					<trkpt lat="45.778340" lon="4.432070">
						<ele>691</ele>
						<time>2025-07-01T15:29:55Z</time>
					</trkpt>
					<trkpt lat="45.778180" lon="4.432230">
						<ele>688</ele>
						<time>2025-07-01T15:30:21Z</time>
					</trkpt>
					<trkpt lat="45.778100" lon="4.432380">
						<ele>687</ele>
						<time>2025-07-01T15:30:39Z</time>
					</trkpt>
					<trkpt lat="45.778020" lon="4.432580">
						<ele>685</ele>
						<time>2025-07-01T15:31:00Z</time>
					</trkpt>
					<trkpt lat="45.777990" lon="4.432730">
						<ele>684</ele>
						<time>2025-07-01T15:31:15Z</time>
					</trkpt>
					<trkpt lat="45.777990" lon="4.432920">
						<ele>684</ele>
						<time>2025-07-01T15:31:32Z</time>
					</trkpt>
					<trkpt lat="45.778020" lon="4.433040">
						<ele>684</ele>
						<time>2025-07-01T15:31:44Z</time>
					</trkpt>
					<trkpt lat="45.778040" lon="4.433090">
						<ele>684</ele>
						<time>2025-07-01T15:31:50Z</time>
					</trkpt>
					<trkpt lat="45.777960" lon="4.433200">
						<ele>683</ele>
						<time>2025-07-01T15:32:04Z</time>
					</trkpt>
					<trkpt lat="45.777620" lon="4.433810">
						<ele>679</ele>
						<time>2025-07-01T15:33:17Z</time>
					</trkpt>
					<trkpt lat="45.777270" lon="4.434310">
						<ele>674</ele>
						<time>2025-07-01T15:34:23Z</time>
					</trkpt>
					<trkpt lat="45.777090" lon="4.434800">
						<ele>674</ele>
						<time>2025-07-01T15:35:15Z</time>
					</trkpt>
					<trkpt lat="45.777040" lon="4.435010">
						<ele>674</ele>
						<time>2025-07-01T15:35:35Z</time>
					</trkpt>
					<trkpt lat="45.777000" lon="4.435390">
						<ele>674</ele>
						<time>2025-07-01T15:36:11Z</time>
					</trkpt>
					<trkpt lat="45.777050" lon="4.435640">
						<ele>675</ele>
						<time>2025-07-01T15:36:35Z</time>
					</trkpt>
					<trkpt lat="45.777130" lon="4.435890">
						<ele>676</ele>
						<time>2025-07-01T15:37:01Z</time>
					</trkpt>
					<trkpt lat="45.777150" lon="4.436080">
						<ele>677</ele>
						<time>2025-07-01T15:37:19Z</time>
					</trkpt>
					<trkpt lat="45.777190" lon="4.436290">
						<ele>678</ele>
						<time>2025-07-01T15:37:39Z</time>
					</trkpt>
					<trkpt lat="45.777200" lon="4.436380">
						<ele>678</ele>
						<time>2025-07-01T15:37:47Z</time>
					</trkpt>
					<trkpt lat="45.777200" lon="4.436450">
						<ele>679</ele>
						<time>2025-07-01T15:37:54Z</time>
					</trkpt>
					<trkpt lat="45.777170" lon="4.436530">
						<ele>679</ele>
						<time>2025-07-01T15:38:02Z</time>
					</trkpt>
					<trkpt lat="45.777100" lon="4.436610">
						<ele>680</ele>
						<time>2025-07-01T15:38:14Z</time>
					</trkpt>
					<trkpt lat="45.777070" lon="4.436630">
						<ele>680</ele>
						<time>2025-07-01T15:38:19Z</time>
					</trkpt>
					<trkpt lat="45.777010" lon="4.436660">
						<ele>680</ele>
						<time>2025-07-01T15:38:27Z</time>
					</trkpt>
					<trkpt lat="45.776840" lon="4.436670">
						<ele>681</ele>
						<time>2025-07-01T15:38:50Z</time>
					</trkpt>
					<trkpt lat="45.776650" lon="4.436670">
						<ele>682</ele>
						<time>2025-07-01T15:39:15Z</time>
					</trkpt>
					<trkpt lat="45.776600" lon="4.436820">
						<ele>684</ele>
						<time>2025-07-01T15:39:31Z</time>
					</trkpt>
					<trkpt lat="45.776500" lon="4.437000">
						<ele>686</ele>
						<time>2025-07-01T15:39:52Z</time>
					</trkpt>
					<trkpt lat="45.776390" lon="4.437130">
						<ele>688</ele>
						<time>2025-07-01T15:40:11Z</time>
					</trkpt>
					<trkpt lat="45.776250" lon="4.437340">
						<ele>691</ele>
						<time>2025-07-01T15:40:38Z</time>
					</trkpt>
					<trkpt lat="45.776040" lon="4.437600">
						<ele>696</ele>
						<time>2025-07-01T15:41:15Z</time>
					</trkpt>
					<trkpt lat="45.775910" lon="4.437720">
						<ele>698</ele>
						<time>2025-07-01T15:41:36Z</time>
					</trkpt>
					<trkpt lat="45.775320" lon="4.437940">
						<ele>699</ele>
						<time>2025-07-01T15:42:57Z</time>
					</trkpt>
					<trkpt lat="45.775020" lon="4.438120">
						<ele>698</ele>
						<time>2025-07-01T15:43:41Z</time>
					</trkpt>
					<trkpt lat="45.774890" lon="4.438250">
						<ele>697</ele>
						<time>2025-07-01T15:44:02Z</time>
					</trkpt>
					<trkpt lat="45.774910" lon="4.438280">
						<ele>697</ele>
						<time>2025-07-01T15:44:06Z</time>
					</trkpt>
					<trkpt lat="45.774920" lon="4.438360">
						<ele>697</ele>
						<time>2025-07-01T15:44:13Z</time>
					</trkpt>
					<trkpt lat="45.774930" lon="4.438400">
						<ele>697</ele>
						<time>2025-07-01T15:44:17Z</time>
					</trkpt>
					<trkpt lat="45.774910" lon="4.438540">
						<ele>697</ele>
						<time>2025-07-01T15:44:30Z</time>
					</trkpt>
					<trkpt lat="45.774860" lon="4.438890">
						<ele>697</ele>
						<time>2025-07-01T15:45:04Z</time>
					</trkpt>
					<trkpt lat="45.774870" lon="4.438920">
						<ele>697</ele>
						<time>2025-07-01T15:45:07Z</time>
					</trkpt>
					<trkpt lat="45.774710" lon="4.439770">
						<ele>699</ele>
						<time>2025-07-01T15:46:29Z</time>
					</trkpt>
					<trkpt lat="45.774640" lon="4.440240">
						<ele>701</ele>
						<time>2025-07-01T15:47:13Z</time>
					</trkpt>
					<trkpt lat="45.774570" lon="4.440960">
						<ele>704</ele>
						<time>2025-07-01T15:48:21Z</time>
					</trkpt>
					<trkpt lat="45.774580" lon="4.441390">
						<ele>706</ele>
						<time>2025-07-01T15:49:01Z</time>
					</trkpt>
					<trkpt lat="45.774460" lon="4.442210">
						<ele>705</ele>
						<time>2025-07-01T15:50:19Z</time>
					</trkpt>
					<trkpt lat="45.774230" lon="4.443330">
						<ele>703</ele>
						<time>2025-07-01T15:52:08Z</time>
					</trkpt>
					<trkpt lat="45.773840" lon="4.444090">
						<ele>701</ele>
						<time>2025-07-01T15:53:36Z</time>
					</trkpt>
					<trkpt lat="45.773450" lon="4.444470">
						<ele>702</ele>
						<time>2025-07-01T15:54:39Z</time>
					</trkpt>
					<trkpt lat="45.773280" lon="4.444630">
						<ele>703</ele>
						<time>2025-07-01T15:55:06Z</time>
					</trkpt>
					<trkpt lat="45.772980" lon="4.444980">
						<ele>706</ele>
						<time>2025-07-01T15:55:57Z</time>
					</trkpt>
					<trkpt lat="45.772430" lon="4.445380">
						<ele>709</ele>
						<time>2025-07-01T15:57:20Z</time>
					</trkpt>
					<trkpt lat="45.772170" lon="4.445520">
						<ele>709</ele>
						<time>2025-07-01T15:57:57Z</time>
					</trkpt>
					<trkpt lat="45.772040" lon="4.445630">
						<ele>710</ele>
						<time>2025-07-01T15:58:17Z</time>
					</trkpt>
					<trkpt lat="45.771880" lon="4.445760">
						<ele>710</ele>
						<time>2025-07-01T15:58:41Z</time>
					</trkpt>
					<trkpt lat="45.772070" lon="4.445870">
						<ele>712</ele>
						<time>2025-07-01T15:59:09Z</time>
					</trkpt>
					<trkpt lat="45.772230" lon="4.446010">
						<ele>713</ele>
						<time>2025-07-01T15:59:34Z</time>
					</trkpt>
					<trkpt lat="45.772360" lon="4.446170">
						<ele>714</ele>
						<time>2025-07-01T15:59:57Z</time>
					</trkpt>
					<trkpt lat="45.772570" lon="4.446470">
						<ele>716</ele>
						<time>2025-07-01T16:00:36Z</time>
					</trkpt>
					<trkpt lat="45.772670" lon="4.446560">
						<ele>717</ele>
						<time>2025-07-01T16:00:52Z</time>
					</trkpt>
					<trkpt lat="45.772980" lon="4.446760">
						<ele>720</ele>
						<time>2025-07-01T16:01:37Z</time>
					</trkpt>
					<trkpt lat="45.773100" lon="4.446890">
						<ele>721</ele>
						<time>2025-07-01T16:01:57Z</time>
					</trkpt>
					<trkpt lat="45.773130" lon="4.446920">
						<ele>721</ele>
						<time>2025-07-01T16:02:02Z</time>
					</trkpt>
					<trkpt lat="45.773100" lon="4.446890">
						<ele>721</ele>
						<time>2025-07-01T16:02:07Z</time>
					</trkpt>
					<trkpt lat="45.773320" lon="4.446630">
						<ele>722</ele>
						<time>2025-07-01T16:02:45Z</time>
					</trkpt>
					<trkpt lat="45.773700" lon="4.446290">
						<ele>722</ele>
						<time>2025-07-01T16:03:45Z</time>
					</trkpt>
					<trkpt lat="45.773920" lon="4.446210">
						<ele>723</ele>
						<time>2025-07-01T16:04:15Z</time>
					</trkpt>
					<trkpt lat="45.774160" lon="4.446220">
						<ele>725</ele>
						<time>2025-07-01T16:04:47Z</time>
					</trkpt>
					<trkpt lat="45.774570" lon="4.446140">
						<ele>728</ele>
						<time>2025-07-01T16:05:43Z</time>
					</trkpt>
					<trkpt lat="45.775230" lon="4.446090">
						<ele>733</ele>
						<time>2025-07-01T16:07:11Z</time>
					</trkpt>
					<trkpt lat="45.776060" lon="4.446150">
						<ele>738</ele>
						<time>2025-07-01T16:09:02Z</time>
					</trkpt>
					<trkpt lat="45.776460" lon="4.446220">
						<ele>740</ele>
						<time>2025-07-01T16:09:55Z</time>
					</trkpt>
					<trkpt lat="45.776750" lon="4.446110">
						<ele>741</ele>
						<time>2025-07-01T16:10:35Z</time>
					</trkpt>
					<trkpt lat="45.776980" lon="4.445630">
						<ele>744</ele>
						<time>2025-07-01T16:11:30Z</time>
					</trkpt>
					<trkpt lat="45.777240" lon="4.444980">
						<ele>752</ele>
						<time>2025-07-01T16:12:39Z</time>
					</trkpt>
					<trkpt lat="45.777530" lon="4.444630">
						<ele>761</ele>
						<time>2025-07-01T16:13:30Z</time>
					</trkpt>
					<trkpt lat="45.777660" lon="4.444190">
						<ele>768</ele>
						<time>2025-07-01T16:14:14Z</time>
					</trkpt>
					<trkpt lat="45.777760" lon="4.443850">
						<ele>768</ele>
						<time>2025-07-01T16:14:49Z</time>
					</trkpt>
					<trkpt lat="45.778240" lon="4.443850">
						<ele>773</ele>
						<time>2025-07-01T16:15:53Z</time>
					</trkpt>
					<trkpt lat="45.778490" lon="4.443770">
						<ele>775</ele>
						<time>2025-07-01T16:16:27Z</time>
					</trkpt>
					<trkpt lat="45.778830" lon="4.443760">
						<ele>778</ele>
						<time>2025-07-01T16:17:12Z</time>
					</trkpt>
					<trkpt lat="45.779280" lon="4.443720">
						<ele>781</ele>
						<time>2025-07-01T16:18:13Z</time>
					</trkpt>
					<trkpt lat="45.779490" lon="4.443670">
						<ele>782</ele>
						<time>2025-07-01T16:18:41Z</time>
					</trkpt>
					<trkpt lat="45.779860" lon="4.443450">
						<ele>783</ele>
						<time>2025-07-01T16:19:34Z</time>
					</trkpt>
					<trkpt lat="45.780100" lon="4.443460">
						<ele>783</ele>
						<time>2025-07-01T16:20:06Z</time>
					</trkpt>
					<trkpt lat="45.780290" lon="4.443340">
						<ele>782</ele>
						<time>2025-07-01T16:20:34Z</time>
					</trkpt>
					<trkpt lat="45.780640" lon="4.443000">
						<ele>778</ele>
						<time>2025-07-01T16:21:31Z</time>
					</trkpt>
					<trkpt lat="45.780760" lon="4.442790">
						<ele>775</ele>
						<time>2025-07-01T16:21:56Z</time>
					</trkpt>
					<trkpt lat="45.781060" lon="4.442610">
						<ele>771</ele>
						<time>2025-07-01T16:22:39Z</time>
					</trkpt>
					<trkpt lat="45.782010" lon="4.442350">
						<ele>761</ele>
						<time>2025-07-01T16:24:48Z</time>
					</trkpt>
					<trkpt lat="45.782590" lon="4.442130">
						<ele>753</ele>
						<time>2025-07-01T16:26:08Z</time>
					</trkpt>
					<trkpt lat="45.782810" lon="4.442140">
						<ele>751</ele>
						<time>2025-07-01T16:26:38Z</time>
					</trkpt>
					<trkpt lat="45.783090" lon="4.442260">
						<ele>748</ele>
						<time>2025-07-01T16:27:17Z</time>
					</trkpt>
					<trkpt lat="45.783180" lon="4.442380">
						<ele>747</ele>
						<time>2025-07-01T16:27:33Z</time>
					</trkpt>
					<trkpt lat="45.783740" lon="4.442750">
						<ele>739</ele>
						<time>2025-07-01T16:28:55Z</time>
					</trkpt>
					<trkpt lat="45.784200" lon="4.443070">
						<ele>733</ele>
						<time>2025-07-01T16:30:04Z</time>
					</trkpt>
					<trkpt lat="45.784220" lon="4.443070">
						<ele>733</ele>
						<time>2025-07-01T16:30:06Z</time>
					</trkpt>
					<trkpt lat="45.784300" lon="4.443080">
						<ele>733</ele>
						<time>2025-07-01T16:30:17Z</time>
					</trkpt>
					<trkpt lat="45.784870" lon="4.443830">
						<ele>731</ele>
						<time>2025-07-01T16:32:00Z</time>
					</trkpt>
					<trkpt lat="45.784740" lon="4.444110">
						<ele>731</ele>
						<time>2025-07-01T16:32:32Z</time>
					</trkpt>
					<trkpt lat="45.784720" lon="4.444660">
						<ele>724</ele>
						<time>2025-07-01T16:33:23Z</time>
					</trkpt>
					<trkpt lat="45.784610" lon="4.445390">
						<ele>715</ele>
						<time>2025-07-01T16:34:32Z</time>
					</trkpt>
					<trkpt lat="45.784580" lon="4.445710">
						<ele>710</ele>
						<time>2025-07-01T16:35:02Z</time>
					</trkpt>
					<trkpt lat="45.784590" lon="4.445950">
						<ele>707</ele>
						<time>2025-07-01T16:35:25Z</time>
					</trkpt>
					<trkpt lat="45.784740" lon="4.446300">
						<ele>702</ele>
						<time>2025-07-01T16:36:03Z</time>
					</trkpt>
					<trkpt lat="45.784850" lon="4.447990">
						<ele>687</ele>
						<time>2025-07-01T16:38:41Z</time>
					</trkpt>
					<trkpt lat="45.784860" lon="4.448760">
						<ele>681</ele>
						<time>2025-07-01T16:39:53Z</time>
					</trkpt>
					<trkpt lat="45.784900" lon="4.448740">
						<ele>682</ele>
						<time>2025-07-01T16:39:58Z</time>
					</trkpt>
					<trkpt lat="45.785370" lon="4.448540">
						<ele>680</ele>
						<time>2025-07-01T16:41:04Z</time>
					</trkpt>
					<trkpt lat="45.785690" lon="4.448420">
						<ele>679</ele>
						<time>2025-07-01T16:41:48Z</time>
					</trkpt>
					<trkpt lat="45.785920" lon="4.448410">
						<ele>677</ele>
						<time>2025-07-01T16:42:18Z</time>
					</trkpt>
					<trkpt lat="45.786170" lon="4.448470">
						<ele>676</ele>
						<time>2025-07-01T16:42:52Z</time>
					</trkpt>
					<trkpt lat="45.786450" lon="4.448640">
						<ele>673</ele>
						<time>2025-07-01T16:43:33Z</time>
					</trkpt>
					<trkpt lat="45.786680" lon="4.448800">
						<ele>669</ele>
						<time>2025-07-01T16:44:07Z</time>
					</trkpt>
					<trkpt lat="45.786940" lon="4.448910">
						<ele>667</ele>
						<time>2025-07-01T16:44:43Z</time>
					</trkpt>
					<trkpt lat="45.787260" lon="4.448950">
						<ele>666</ele>
						<time>2025-07-01T16:45:26Z</time>
					</trkpt>
					<trkpt lat="45.787660" lon="4.449040">
						<ele>664</ele>
						<time>2025-07-01T16:46:20Z</time>
					</trkpt>
					<trkpt lat="45.787810" lon="4.449110">
						<ele>661</ele>
						<time>2025-07-01T16:46:41Z</time>
					</trkpt>
					<trkpt lat="45.787950" lon="4.449190">
						<ele>659</ele>
						<time>2025-07-01T16:47:01Z</time>
					</trkpt>
					<trkpt lat="45.788360" lon="4.449280">
						<ele>657</ele>
						<time>2025-07-01T16:47:57Z</time>
					</trkpt>
					<trkpt lat="45.788450" lon="4.449330">
						<ele>656</ele>
						<time>2025-07-01T16:48:09Z</time>
					</trkpt>
					<trkpt lat="45.788610" lon="4.449450">
						<ele>653</ele>
						<time>2025-07-01T16:48:34Z</time>
					</trkpt>
					<trkpt lat="45.788740" lon="4.449550">
						<ele>651</ele>
						<time>2025-07-01T16:48:53Z</time>
					</trkpt>
					<trkpt lat="45.789390" lon="4.449910">
						<ele>647</ele>
						<time>2025-07-01T16:50:26Z</time>
					</trkpt>
					<trkpt lat="45.789500" lon="4.450020">
						<ele>647</ele>
						<time>2025-07-01T16:50:44Z</time>
					</trkpt>
					<trkpt lat="45.789560" lon="4.450120">
						<ele>647</ele>
						<time>2025-07-01T16:50:56Z</time>
					</trkpt>
					<trkpt lat="45.789600" lon="4.450220">
						<ele>646</ele>
						<time>2025-07-01T16:51:07Z</time>
					</trkpt>
					<trkpt lat="45.789630" lon="4.450130">
						<ele>647</ele>
						<time>2025-07-01T16:51:16Z</time>
					</trkpt>
					<trkpt lat="45.789600" lon="4.450220">
						<ele>646</ele>
						<time>2025-07-01T16:51:26Z</time>
					</trkpt>
					<trkpt lat="45.789620" lon="4.450400">
						<ele>645</ele>
						<time>2025-07-01T16:51:43Z</time>
					</trkpt>
					<trkpt lat="45.789660" lon="4.450920">
						<ele>644</ele>
						<time>2025-07-01T16:52:31Z</time>
					</trkpt>
					<trkpt lat="45.789580" lon="4.451510">
						<ele>647</ele>
						<time>2025-07-01T16:53:27Z</time>
					</trkpt>
					<trkpt lat="45.789370" lon="4.453590">
						<ele>652</ele>
						<time>2025-07-01T16:56:43Z</time>
					</trkpt>
					<trkpt lat="45.789340" lon="4.454070">
						<ele>655</ele>
						<time>2025-07-01T16:57:28Z</time>
					</trkpt>
					<trkpt lat="45.789340" lon="4.454500">
						<ele>658</ele>
						<time>2025-07-01T16:58:08Z</time>
					</trkpt>
					<trkpt lat="45.789320" lon="4.454740">
						<ele>659</ele>
						<time>2025-07-01T16:58:30Z</time>
					</trkpt>
					<trkpt lat="45.789240" lon="4.455170">
						<ele>659</ele>
						<time>2025-07-01T16:59:12Z</time>
					</trkpt>
					<trkpt lat="45.789220" lon="4.455270">
						<ele>658</ele>
						<time>2025-07-01T16:59:21Z</time>
					</trkpt>
					<trkpt lat="45.789270" lon="4.455390">
						<ele>659</ele>
						<time>2025-07-01T16:59:34Z</time>
					</trkpt>
					<trkpt lat="45.789560" lon="4.455030">
						<ele>664</ele>
						<time>2025-07-01T17:00:25Z</time>
					</trkpt>
					<trkpt lat="45.789800" lon="4.454790">
						<ele>668</ele>
						<time>2025-07-01T17:01:05Z</time>
					</trkpt>
					<trkpt lat="45.789970" lon="4.454530">
						<ele>671</ele>
						<time>2025-07-01T17:01:38Z</time>
					</trkpt>
					<trkpt lat="45.790530" lon="4.453540">
						<ele>678</ele>
						<time>2025-07-01T17:03:36Z</time>
					</trkpt>
					<trkpt lat="45.790750" lon="4.453200">
						<ele>680</ele>
						<time>2025-07-01T17:04:19Z</time>
					</trkpt>
					<trkpt lat="45.790880" lon="4.453000">
						<ele>680</ele>
						<time>2025-07-01T17:04:45Z</time>
					</trkpt>
					<trkpt lat="45.791210" lon="4.452690">
						<ele>684</ele>
						<time>2025-07-01T17:05:38Z</time>
					</trkpt>
					<trkpt lat="45.791610" lon="4.452330">
						<ele>686</ele>
						<time>2025-07-01T17:06:41Z</time>
					</trkpt>
					<trkpt lat="45.792440" lon="4.451690">
						<ele>690</ele>
						<time>2025-07-01T17:08:46Z</time>
					</trkpt>
					<trkpt lat="45.792660" lon="4.451470">
						<ele>691</ele>
						<time>2025-07-01T17:09:22Z</time>
					</trkpt>
					<trkpt lat="45.792830" lon="4.451340">
						<ele>693</ele>
						<time>2025-07-01T17:09:48Z</time>
					</trkpt>
					<trkpt lat="45.793150" lon="4.451200">
						<ele>697</ele>
						<time>2025-07-01T17:10:32Z</time>
					</trkpt>
					<trkpt lat="45.793340" lon="4.451100">
						<ele>699</ele>
						<time>2025-07-01T17:10:59Z</time>
					</trkpt>
					<trkpt lat="45.793460" lon="4.450970">
						<ele>702</ele>
						<time>2025-07-01T17:11:20Z</time>
					</trkpt>
					<trkpt lat="45.793520" lon="4.450880">
						<ele>703</ele>
						<time>2025-07-01T17:11:31Z</time>
					</trkpt>
					<trkpt lat="45.793580" lon="4.450770">
						<ele>704</ele>
						<time>2025-07-01T17:11:44Z</time>
					</trkpt>
					<trkpt lat="45.793610" lon="4.450490">
						<ele>703</ele>
						<time>2025-07-01T17:12:10Z</time>
					</trkpt>
					<trkpt lat="45.793720" lon="4.450210">
						<ele>705</ele>
						<time>2025-07-01T17:12:40Z</time>
					</trkpt>
					<trkpt lat="45.793870" lon="4.449830">
						<ele>707</ele>
						<time>2025-07-01T17:13:21Z</time>
					</trkpt>
					<trkpt lat="45.793970" lon="4.449560">
						<ele>707</ele>
						<time>2025-07-01T17:13:49Z</time>
					</trkpt>
					<trkpt lat="45.794020" lon="4.449230">
						<ele>706</ele>
						<time>2025-07-01T17:14:21Z</time>
					</trkpt>
					<trkpt lat="45.794310" lon="4.447990">
						<ele>711</ele>
						<time>2025-07-01T17:16:23Z</time>
					</trkpt>
					<trkpt lat="45.794410" lon="4.447570">
						<ele>715</ele>
						<time>2025-07-01T17:17:04Z</time>
					</trkpt>
					<trkpt lat="45.794410" lon="4.447320">
						<ele>717</ele>
						<time>2025-07-01T17:17:27Z</time>
					</trkpt>
					<trkpt lat="45.794390" lon="4.446930">
						<ele>720</ele>
						<time>2025-07-01T17:18:04Z</time>
					</trkpt>
					<trkpt lat="45.794260" lon="4.446570">
						<ele>721</ele>
						<time>2025-07-01T17:18:41Z</time>
					</trkpt>
					<trkpt lat="45.794070" lon="4.446180">
						<ele>722</ele>
						<time>2025-07-01T17:19:26Z</time>
					</trkpt>
					<trkpt lat="45.793890" lon="4.445930">
						<ele>724</ele>
						<time>2025-07-01T17:19:59Z</time>
					</trkpt>
					<trkpt lat="45.793720" lon="4.445710">
						<ele>725</ele>
						<time>2025-07-01T17:20:29Z</time>
					</trkpt>
					<trkpt lat="45.793520" lon="4.445560">
						<ele>725</ele>
						<time>2025-07-01T17:21:00Z</time>
					</trkpt>
					<trkpt lat="45.793360" lon="4.445480">
						<ele>726</ele>
						<time>2025-07-01T17:21:22Z</time>
					</trkpt>
					<trkpt lat="45.793140" lon="4.445320">
						<ele>728</ele>
						<time>2025-07-01T17:21:55Z</time>
					</trkpt>
					<trkpt lat="45.793180" lon="4.445240">
						<ele>727</ele>
						<time>2025-07-01T17:22:04Z</time>
					</trkpt>
					<trkpt lat="45.793330" lon="4.444990">
						<ele>725</ele>
						<time>2025-07-01T17:22:35Z</time>
					</trkpt>
					<trkpt lat="45.793200" lon="4.444440">
						<ele>724</ele>
						<time>2025-07-01T17:23:29Z</time>
					</trkpt>
					<trkpt lat="45.793190" lon="4.443830">
						<ele>724</ele>
						<time>2025-07-01T17:24:26Z</time>
					</trkpt>
					<trkpt lat="45.793220" lon="4.443170">
						<ele>725</ele>
						<time>2025-07-01T17:25:27Z</time>
					</trkpt>
					<trkpt lat="45.793180" lon="4.442800">
						<ele>725</ele>
						<time>2025-07-01T17:26:02Z</time>
					</trkpt>
					<trkpt lat="45.793300" lon="4.442870">
						<ele>726</ele>
						<time>2025-07-01T17:26:19Z</time>
					</trkpt>
					<trkpt lat="45.793320" lon="4.442690">
						<ele>726</ele>
						<time>2025-07-01T17:26:36Z</time>
					</trkpt>
					<trkpt lat="45.793380" lon="4.442100">
						<ele>727</ele>
						<time>2025-07-01T17:27:32Z</time>
					</trkpt>
					<trkpt lat="45.793540" lon="4.440880">
						<ele>725</ele>
						<time>2025-07-01T17:29:27Z</time>
					</trkpt>
					<trkpt lat="45.793600" lon="4.440430">
						<ele>726</ele>
						<time>2025-07-01T17:30:10Z</time>
					</trkpt>
					<trkpt lat="45.793650" lon="4.439820">
						<ele>730</ele>
						<time>2025-07-01T17:31:07Z</time>
					</trkpt>
					<trkpt lat="45.793650" lon="4.439600">
						<ele>732</ele>
						<time>2025-07-01T17:31:28Z</time>
					</trkpt>
					<trkpt lat="45.793690" lon="4.439360">
						<ele>735</ele>
						<time>2025-07-01T17:31:51Z</time>
					</trkpt>
					<trkpt lat="45.793710" lon="4.439120">
						<ele>739</ele>
						<time>2025-07-01T17:32:13Z</time>
					</trkpt>
					<trkpt lat="45.793700" lon="4.438940">
						<ele>741</ele>
						<time>2025-07-01T17:32:30Z</time>
					</trkpt>
					<trkpt lat="45.793650" lon="4.438780">
						<ele>743</ele>
						<time>2025-07-01T17:32:46Z</time>
					</trkpt>
					<trkpt lat="45.793520" lon="4.438530">
						<ele>746</ele>
						<time>2025-07-01T17:33:15Z</time>
					</trkpt>
					<trkpt lat="45.793390" lon="4.438370">
						<ele>747</ele>
						<time>2025-07-01T17:33:38Z</time>
					</trkpt>
					<trkpt lat="45.793310" lon="4.438260">
						<ele>747</ele>
						<time>2025-07-01T17:33:53Z</time>
					</trkpt>
					<trkpt lat="45.793250" lon="4.438070">
						<ele>748</ele>
						<time>2025-07-01T17:34:12Z</time>
					</trkpt>
					<trkpt lat="45.793250" lon="4.437850">
						<ele>749</ele>
						<time>2025-07-01T17:34:33Z</time>
					</trkpt>
					<trkpt lat="45.793280" lon="4.437560">
						<ele>750</ele>
						<time>2025-07-01T17:35:00Z</time>
					</trkpt>
					<trkpt lat="45.793280" lon="4.437530">
						<ele>750</ele>
						<time>2025-07-01T17:35:03Z</time>
					</trkpt>
					<trkpt lat="45.793980" lon="4.437570">
						<ele>753</ele>
						<time>2025-07-01T17:36:36Z</time>
					</trkpt>
					<trkpt lat="45.794310" lon="4.437620">
						<ele>754</ele>
						<time>2025-07-01T17:37:21Z</time>
					</trkpt>
					<trkpt lat="45.794460" lon="4.437390">
						<ele>753</ele>
						<time>2025-07-01T17:37:50Z</time>
					</trkpt>
					<trkpt lat="45.794740" lon="4.436930">
						<ele>750</ele>
						<time>2025-07-01T17:38:47Z</time>
					</trkpt>
					<trkpt lat="45.795180" lon="4.436400">
						<ele>751</ele>
						<time>2025-07-01T17:40:03Z</time>
					</trkpt>
					<trkpt lat="45.795430" lon="4.435740">
						<ele>750</ele>
						<time>2025-07-01T17:41:13Z</time>
					</trkpt>
					<trkpt lat="45.795700" lon="4.434850">
						<ele>748</ele>
						<time>2025-07-01T17:42:44Z</time>
					</trkpt>
					<trkpt lat="45.795740" lon="4.434490">
						<ele>747</ele>
						<time>2025-07-01T17:43:18Z</time>
					</trkpt>
					<trkpt lat="45.795780" lon="4.434460">
						<ele>747</ele>
						<time>2025-07-01T17:43:24Z</time>
					</trkpt>
					<trkpt lat="45.795860" lon="4.434400">
						<ele>747</ele>
						<time>2025-07-01T17:43:36Z</time>
					</trkpt>
					<trkpt lat="45.796180" lon="4.434490">
						<ele>749</ele>
						<time>2025-07-01T17:44:19Z</time>
					</trkpt>
					<trkpt lat="45.796600" lon="4.434490">
						<ele>749</ele>
						<time>2025-07-01T17:45:15Z</time>
					</trkpt>
					<trkpt lat="45.796850" lon="4.434420">
						<ele>748</ele>
						<time>2025-07-01T17:45:49Z</time>
					</trkpt>
					<trkpt lat="45.797080" lon="4.434510">
						<ele>749</ele>
						<time>2025-07-01T17:46:21Z</time>
					</trkpt>
					<trkpt lat="45.797220" lon="4.434450">
						<ele>748</ele>
						<time>2025-07-01T17:46:40Z</time>
					</trkpt>
					<trkpt lat="45.797310" lon="4.434240">
						<ele>747</ele>
						<time>2025-07-01T17:47:03Z</time>
					</trkpt>
					<trkpt lat="45.797560" lon="4.433790">
						<ele>748</ele>
						<time>2025-07-01T17:47:57Z</time>
					</trkpt>
					<trkpt lat="45.797620" lon="4.433320">
						<ele>750</ele>
						<time>2025-07-01T17:48:41Z</time>
					</trkpt>
					<trkpt lat="45.797570" lon="4.432700">
						<ele>748</ele>
						<time>2025-07-01T17:49:39Z</time>
					</trkpt>
					<trkpt lat="45.797610" lon="4.432260">
						<ele>746</ele>
						<time>2025-07-01T17:50:21Z</time>
					</trkpt>
					<trkpt lat="45.797820" lon="4.431990">
						<ele>746</ele>
						<time>2025-07-01T17:50:58Z</time>
					</trkpt>
					<trkpt lat="45.798060" lon="4.431790">
						<ele>748</ele>
						<time>2025-07-01T17:51:35Z</time>
					</trkpt>
					<trkpt lat="45.798380" lon="4.431490">
						<ele>748</ele>
						<time>2025-07-01T17:52:26Z</time>
					</trkpt>
					<trkpt lat="45.798470" lon="4.431370">
						<ele>747</ele>
						<time>2025-07-01T17:52:43Z</time>
					</trkpt>
					<trkpt lat="45.798650" lon="4.431050">
						<ele>745</ele>
						<time>2025-07-01T17:53:21Z</time>
					</trkpt>
					<trkpt lat="45.798810" lon="4.430820">
						<ele>744</ele>
						<time>2025-07-01T17:53:51Z</time>
					</trkpt>
					<trkpt lat="45.798930" lon="4.430520">
						<ele>742</ele>
						<time>2025-07-01T17:54:23Z</time>
					</trkpt>
					<trkpt lat="45.799210" lon="4.429550">
						<ele>734</ele>
						<time>2025-07-01T17:56:01Z</time>
					</trkpt>
					<trkpt lat="45.799290" lon="4.429330">
						<ele>733</ele>
						<time>2025-07-01T17:56:24Z</time>
					</trkpt>
					<trkpt lat="45.799510" lon="4.428880">
						<ele>730</ele>
						<time>2025-07-01T17:57:15Z</time>
					</trkpt>
					<trkpt lat="45.799540" lon="4.428800">
						<ele>730</ele>
						<time>2025-07-01T17:57:24Z</time>
					</trkpt>
					<trkpt lat="45.799530" lon="4.428740">
						<ele>729</ele>
						<time>2025-07-01T17:57:30Z</time>
					</trkpt>
					<trkpt lat="45.799500" lon="4.428690">
						<ele>729</ele>
						<time>2025-07-01T17:57:36Z</time>
					</trkpt>
					<trkpt lat="45.799450" lon="4.428640">
						<ele>729</ele>
						<time>2025-07-01T17:57:44Z</time>
					</trkpt>
					<trkpt lat="45.799070" lon="4.428310">
						<ele>727</ele>
						<time>2025-07-01T17:58:43Z</time>
					</trkpt>
					<trkpt lat="45.798690" lon="4.428020">
						<ele>722</ele>
						<time>2025-07-01T17:59:41Z</time>
					</trkpt>
					<trkpt lat="45.798660" lon="4.427990">
						<ele>722</ele>
						<time>2025-07-01T17:59:45Z</time>
					</trkpt>
					<trkpt lat="45.798600" lon="4.427890">
						<ele>721</ele>
						<time>2025-07-01T17:59:58Z</time>
					</trkpt>
					<trkpt lat="45.798560" lon="4.427640">
						<ele>720</ele>
						<time>2025-07-01T18:00:22Z</time>
					</trkpt>
					<trkpt lat="45.798510" lon="4.427460">
						<ele>720</ele>
						<time>2025-07-01T18:00:40Z</time>
					</trkpt>
					<trkpt lat="45.797760" lon="4.426290">
						<ele>724</ele>
						<time>2025-07-01T18:03:07Z</time>
					</trkpt>
					<trkpt lat="45.797160" lon="4.425920">
						<ele>721</ele>
						<time>2025-07-01T18:04:35Z</time>
					</trkpt>
					<trkpt lat="45.796860" lon="4.425690">
						<ele>719</ele>
						<time>2025-07-01T18:05:20Z</time>
					</trkpt>
					<trkpt lat="45.796450" lon="4.425300">
						<ele>715</ele>
						<time>2025-07-01T18:06:26Z</time>
					</trkpt>
					<trkpt lat="45.796390" lon="4.425380">
						<ele>714</ele>
						<time>2025-07-01T18:06:37Z</time>
					</trkpt>
					<trkpt lat="45.796450" lon="4.425300">
						<ele>715</ele>
						<time>2025-07-01T18:06:48Z</time>
					</trkpt>
					<trkpt lat="45.796050" lon="4.424990">
						<ele>710</ele>
						<time>2025-07-01T18:07:48Z</time>
					</trkpt>
					<trkpt lat="45.795980" lon="4.424950">
						<ele>708</ele>
						<time>2025-07-01T18:07:58Z</time>
					</trkpt>
					<trkpt lat="45.795680" lon="4.425090">
						<ele>707</ele>
						<time>2025-07-01T18:08:40Z</time>
					</trkpt>
					<trkpt lat="45.795610" lon="4.425080">
						<ele>706</ele>
						<time>2025-07-01T18:08:50Z</time>
					</trkpt>
					<trkpt lat="45.795560" lon="4.425040">
						<ele>706</ele>
						<time>2025-07-01T18:08:57Z</time>
					</trkpt>
					<trkpt lat="45.795400" lon="4.425010">
						<ele>705</ele>
						<time>2025-07-01T18:09:19Z</time>
					</trkpt>
					<trkpt lat="45.795030" lon="4.424840">
						<ele>702</ele>
						<time>2025-07-01T18:10:11Z</time>
					</trkpt>
					<trkpt lat="45.794680" lon="4.424650">
						<ele>701</ele>
						<time>2025-07-01T18:11:01Z</time>
					</trkpt>
					<trkpt lat="45.794220" lon="4.424360">
						<ele>701</ele>
						<time>2025-07-01T18:12:08Z</time>
					</trkpt>
					<trkpt lat="45.794050" lon="4.424320">
						<ele>702</ele>
						<time>2025-07-01T18:12:31Z</time>
					</trkpt>
					<trkpt lat="45.793970" lon="4.424320">
						<ele>702</ele>
						<time>2025-07-01T18:12:41Z</time>
					</trkpt>
					<trkpt lat="45.794050" lon="4.424320">
						<ele>702</ele>
						<time>2025-07-01T18:12:52Z</time>
					</trkpt>
					<trkpt lat="45.794220" lon="4.424360">
						<ele>701</ele>
						<time>2025-07-01T18:13:15Z</time>
					</trkpt>
					<trkpt lat="45.793950" lon="4.424110">
						<ele>703</ele>
						<time>2025-07-01T18:13:58Z</time>
					</trkpt>
					<trkpt lat="45.793830" lon="4.424050">
						<ele>703</ele>
						<time>2025-07-01T18:14:15Z</time>
					</trkpt>
					<trkpt lat="45.793620" lon="4.424070">
						<ele>704</ele>
						<time>2025-07-01T18:14:43Z</time>
					</trkpt>
					<trkpt lat="45.793180" lon="4.424160">
						<ele>704</ele>
						<time>2025-07-01T18:15:42Z</time>
					</trkpt>
					<trkpt lat="45.793080" lon="4.424160">
						<ele>704</ele>
						<time>2025-07-01T18:15:56Z</time>
					</trkpt>
					<trkpt lat="45.792930" lon="4.424140">
						<ele>704</ele>
						<time>2025-07-01T18:16:16Z</time>
					</trkpt>
					<trkpt lat="45.792770" lon="4.424090">
						<ele>703</ele>
						<time>2025-07-01T18:16:38Z</time>
					</trkpt>
					<trkpt lat="45.792340" lon="4.424120">
						<ele>701</ele>
						<time>2025-07-01T18:17:35Z</time>
					</trkpt>
					<trkpt lat="45.792120" lon="4.424130">
						<ele>700</ele>
						<time>2025-07-01T18:18:04Z</time>
					</trkpt>
					<trkpt lat="45.792010" lon="4.424150">
						<ele>700</ele>
						<time>2025-07-01T18:18:19Z</time>
					</trkpt>
					<trkpt lat="45.791970" lon="4.424180">
						<ele>699</ele>
						<time>2025-07-01T18:18:25Z</time>
					</trkpt>
					<trkpt lat="45.791820" lon="4.424290">
						<ele>698</ele>
						<time>2025-07-01T18:18:48Z</time>
					</trkpt>
					<trkpt lat="45.791750" lon="4.424330">
						<ele>697</ele>
						<time>2025-07-01T18:18:58Z</time>
					</trkpt>
					<trkpt lat="45.791760" lon="4.424350">
						<ele>697</ele>
						<time>2025-07-01T18:19:00Z</time>
					</trkpt>
					</trkseg>
				</trk>
			</gpx>